createdAt,value
2024-03-15T00:01:17.691Z,11.50
2024-03-15T00:02:42.968Z,9.87
2024-03-15T00:04:05.658Z,10.47
2024-03-15T00:05:27.855Z,11.73
2024-03-15T00:06:50.484Z,10.20
2024-03-15T00:08:12.635Z,11.20
2024-03-15T00:09:34.934Z,11.30
2024-03-15T00:10:57.047Z,11.17
2024-03-15T00:12:20.232Z,11.60
2024-03-15T00:13:42.446Z,10.87
2024-03-15T00:15:05.056Z,10.23
2024-03-15T00:16:29.499Z,11.50
2024-03-15T00:17:51.700Z,11.63
2024-03-15T00:19:13.854Z,9.80
2024-03-15T00:20:36.068Z,12.10
2024-03-15T00:21:59.309Z,11.17
2024-03-15T00:23:21.617Z,10.43
2024-03-15T00:24:43.842Z,10.97
2024-03-15T00:26:05.963Z,12.23
2024-03-15T00:27:28.154Z,11.10
2024-03-15T00:28:50.324Z,10.93
2024-03-15T00:30:12.559Z,11.30
2024-03-15T00:31:35.277Z,10.10
2024-03-15T00:32:58.865Z,11.27
2024-03-15T00:34:21.080Z,11.33
2024-03-15T00:35:44.025Z,11.10
2024-03-15T00:37:06.320Z,11.20
2024-03-15T00:38:29.385Z,11.10
2024-03-15T00:39:51.485Z,10.43
2024-03-15T00:41:13.561Z,11.17
2024-03-15T00:42:35.803Z,10.90
2024-03-15T00:43:57.931Z,12.40
2024-03-15T00:45:20.048Z,11.07
2024-03-15T00:46:42.281Z,11.20
2024-03-15T00:48:04.957Z,11.40
2024-03-15T00:49:27.611Z,11.27
2024-03-15T00:50:50.669Z,11.90
2024-03-15T00:52:12.861Z,12.07
2024-03-15T00:53:35.723Z,11.10
2024-03-15T00:54:57.756Z,11.93
2024-03-15T00:56:19.907Z,12.33
2024-03-15T00:57:42.048Z,11.07
2024-03-15T00:59:04.206Z,11.87
2024-03-15T01:00:26.727Z,11.70
2024-03-15T01:01:48.934Z,11.10
2024-03-15T01:03:13.059Z,11.83
2024-03-15T01:04:36.214Z,11.73
2024-03-15T01:05:58.382Z,10.77
2024-03-15T01:07:21.229Z,11.50
2024-03-15T01:08:43.363Z,10.70
2024-03-15T01:10:05.687Z,10.03
2024-03-15T01:11:29.663Z,12.10
2024-03-15T01:12:52.028Z,11.67
2024-03-15T01:14:14.279Z,11.57
2024-03-15T01:15:36.743Z,12.30
2024-03-15T01:16:58.827Z,11.30
2024-03-15T01:18:21.037Z,12.20
2024-03-15T01:19:46.407Z,12.00
2024-03-15T01:21:08.723Z,11.67
2024-03-15T01:22:33.244Z,10.40
2024-03-15T01:23:56.028Z,11.20
2024-03-15T01:25:18.198Z,11.77
2024-03-15T01:26:41.059Z,11.10
2024-03-15T01:28:04.136Z,11.47
2024-03-15T01:29:27.980Z,11.97
2024-03-15T01:30:50.281Z,10.77
2024-03-15T01:32:12.670Z,10.60
2024-03-15T01:33:34.968Z,12.27
2024-03-15T01:34:57.071Z,11.70
2024-03-15T01:36:19.282Z,11.13
2024-03-15T01:37:42.195Z,10.90
2024-03-15T01:39:06.430Z,11.03
2024-03-15T01:40:28.722Z,11.60
2024-03-15T01:41:50.982Z,11.53
2024-03-15T01:43:16.004Z,11.90
2024-03-15T01:44:52.885Z,10.83
2024-03-15T01:46:15.174Z,11.40
2024-03-15T01:47:37.792Z,12.53
2024-03-15T01:49:01.113Z,13.00
2024-03-15T01:50:24.950Z,11.67
2024-03-15T01:51:47.170Z,11.43
2024-03-15T01:53:10.359Z,12.80
2024-03-15T01:54:32.540Z,11.90
2024-03-15T01:55:54.624Z,12.10
2024-03-15T01:57:19.025Z,12.27
2024-03-15T01:58:41.308Z,11.23
2024-03-15T02:00:06.697Z,12.27
2024-03-15T02:01:28.880Z,11.30
2024-03-15T02:02:50.987Z,12.20
2024-03-15T02:04:13.074Z,10.60
2024-03-15T02:05:35.158Z,10.40
2024-03-15T02:06:58.005Z,10.63
2024-03-15T02:08:20.316Z,11.90
2024-03-15T02:09:42.538Z,10.53
2024-03-15T02:11:04.696Z,10.63
2024-03-15T02:12:27.072Z,11.53
2024-03-15T02:13:49.956Z,11.33
2024-03-15T02:15:12.099Z,11.00
2024-03-15T02:16:35.346Z,11.13
2024-03-15T02:17:57.772Z,11.40
2024-03-15T02:19:20.290Z,11.20
2024-03-15T02:20:42.410Z,11.40
2024-03-15T02:22:04.513Z,11.67
2024-03-15T02:23:29.468Z,10.33
2024-03-15T02:24:52.848Z,10.40
2024-03-15T02:26:15.011Z,11.53
2024-03-15T02:27:37.231Z,11.77
2024-03-15T02:28:59.517Z,11.10
2024-03-15T02:30:21.726Z,12.30
2024-03-15T02:31:47.569Z,11.90
2024-03-15T02:33:11.493Z,11.40
2024-03-15T02:34:35.907Z,9.90
2024-03-15T02:35:58.022Z,10.33
2024-03-15T02:37:20.647Z,10.70
2024-03-15T02:38:48.451Z,11.10
2024-03-15T02:40:10.912Z,12.43
2024-03-15T02:41:32.973Z,11.10
2024-03-15T02:42:55.226Z,12.13
2024-03-15T02:44:17.359Z,11.47
2024-03-15T02:45:39.571Z,10.90
2024-03-15T02:47:01.836Z,12.17
2024-03-15T02:48:23.989Z,12.00
2024-03-15T02:49:46.164Z,12.23
2024-03-15T02:51:08.811Z,11.90
2024-03-15T02:52:30.906Z,11.83
2024-03-15T02:53:53.612Z,12.00
2024-03-15T02:55:15.845Z,12.07
2024-03-15T02:56:37.930Z,12.97
2024-03-15T02:58:00.068Z,11.40
2024-03-15T02:59:24.966Z,11.60
2024-03-15T03:00:50.161Z,11.37
2024-03-15T03:02:12.340Z,11.70
2024-03-15T03:03:34.575Z,12.20
2024-03-15T03:04:56.761Z,12.70
2024-03-15T03:06:18.832Z,12.00
2024-03-15T03:07:40.914Z,10.90
2024-03-15T03:09:03.164Z,13.10
2024-03-15T03:10:25.275Z,12.50
2024-03-15T03:11:47.491Z,12.00
2024-03-15T03:13:09.789Z,13.30
2024-03-15T03:14:34.975Z,11.90
2024-03-15T03:15:57.210Z,12.13
2024-03-15T03:17:19.406Z,12.83
2024-03-15T03:18:41.517Z,12.17
2024-03-15T03:20:12.383Z,12.27
2024-03-15T03:21:34.740Z,11.87
2024-03-15T03:22:58.000Z,11.20
2024-03-15T03:24:20.174Z,11.97
2024-03-15T03:25:42.236Z,11.70
2024-03-15T03:27:04.305Z,12.80
2024-03-15T03:28:27.360Z,12.70
2024-03-15T03:29:49.514Z,11.93
2024-03-15T03:31:11.648Z,11.30
2024-03-15T03:32:33.859Z,13.10
2024-03-15T03:33:56.391Z,12.63
2024-03-15T03:35:18.564Z,11.47
2024-03-15T03:36:40.731Z,12.30
2024-03-15T03:38:03.888Z,12.47
2024-03-15T03:39:27.071Z,12.97
2024-03-15T03:40:49.339Z,11.80
2024-03-15T03:42:13.147Z,12.20
2024-03-15T03:43:35.543Z,11.53
2024-03-15T03:44:59.061Z,12.87
2024-03-15T03:46:22.536Z,12.33
2024-03-15T03:47:51.674Z,12.90
2024-03-15T03:49:13.885Z,12.70
2024-03-15T03:50:36.038Z,12.37
2024-03-15T03:52:01.018Z,12.67
2024-03-15T03:53:23.073Z,11.73
2024-03-15T03:54:45.365Z,12.13
2024-03-15T03:56:08.728Z,12.70
2024-03-15T03:57:39.565Z,11.63
2024-03-15T03:59:07.287Z,12.27
2024-03-15T04:00:29.364Z,11.70
2024-03-15T04:01:51.607Z,11.90
2024-03-15T04:03:13.819Z,12.43
2024-03-15T04:04:37.084Z,12.27
2024-03-15T04:05:59.548Z,13.10
2024-03-15T04:07:29.202Z,13.37
2024-03-15T04:08:51.376Z,12.13
2024-03-15T04:10:15.407Z,11.77
2024-03-15T04:11:39.687Z,12.43
2024-03-15T04:13:01.760Z,13.60
2024-03-15T04:14:24.033Z,12.83
2024-03-15T04:15:47.736Z,13.73
2024-03-15T04:17:10.142Z,13.20
2024-03-15T04:18:33.907Z,13.30
2024-03-15T04:19:58.432Z,12.77
2024-03-15T04:21:20.533Z,14.13
2024-03-15T04:22:47.016Z,12.90
2024-03-15T04:24:10.692Z,12.57
2024-03-15T04:25:33.801Z,13.03
2024-03-15T04:26:55.939Z,13.33
2024-03-15T04:28:20.827Z,13.20
2024-03-15T04:29:43.139Z,13.07
2024-03-15T04:31:06.611Z,11.77
2024-03-15T04:32:28.970Z,11.93
2024-03-15T04:33:51.347Z,13.07
2024-03-15T04:35:14.542Z,13.00
2024-03-15T04:36:36.919Z,11.97
2024-03-15T04:37:59.263Z,11.97
2024-03-15T04:39:22.680Z,11.37
2024-03-15T04:40:44.904Z,11.57
2024-03-15T04:42:07.080Z,12.33
2024-03-15T04:43:29.374Z,12.17
2024-03-15T04:44:53.207Z,12.13
2024-03-15T04:46:15.316Z,11.67
2024-03-15T04:47:41.858Z,12.40
2024-03-15T04:49:04.317Z,12.30
2024-03-15T04:50:26.468Z,13.10
2024-03-15T04:51:49.439Z,12.73
2024-03-15T04:53:11.884Z,13.30
2024-03-15T04:54:39.104Z,12.83
2024-03-15T04:56:01.305Z,13.47
2024-03-15T04:57:26.572Z,12.37
2024-03-15T04:58:48.740Z,13.27
2024-03-15T05:00:19.657Z,12.23
2024-03-15T05:01:43.566Z,10.97
2024-03-15T05:03:05.779Z,13.70
2024-03-15T05:04:27.995Z,12.77
2024-03-15T05:05:51.202Z,10.87
2024-03-15T05:07:13.538Z,12.50
2024-03-15T05:08:36.430Z,12.20
2024-03-15T05:09:58.687Z,12.50
2024-03-15T05:11:20.849Z,11.33
2024-03-15T05:12:43.215Z,13.13
2024-03-15T05:14:05.439Z,12.57
2024-03-15T05:15:27.577Z,11.70
2024-03-15T05:16:56.364Z,13.00
2024-03-15T05:18:18.552Z,12.57
2024-03-15T05:19:40.786Z,11.87
2024-03-15T05:21:02.979Z,12.23
2024-03-15T05:22:26.044Z,11.80
2024-03-15T05:23:48.530Z,12.47
2024-03-15T05:25:14.975Z,12.23
2024-03-15T05:26:37.053Z,11.50
2024-03-15T05:27:59.252Z,12.30
2024-03-15T05:29:21.645Z,12.10
2024-03-15T05:30:44.878Z,12.33
2024-03-15T05:32:07.275Z,12.77
2024-03-15T05:33:29.443Z,11.97
2024-03-15T05:34:51.574Z,11.97
2024-03-15T05:36:13.733Z,12.20
2024-03-15T05:37:35.879Z,12.13
2024-03-15T05:38:58.031Z,12.30
2024-03-15T05:40:22.242Z,12.40
2024-03-15T05:41:44.304Z,11.73
2024-03-15T05:43:06.409Z,12.50
2024-03-15T05:44:28.497Z,12.30
2024-03-15T05:45:50.653Z,12.50
2024-03-15T05:47:15.965Z,12.60
2024-03-15T05:48:39.099Z,12.73
2024-03-15T05:50:03.665Z,12.80
2024-03-15T05:51:25.763Z,12.37
2024-03-15T05:52:47.927Z,12.27
2024-03-15T05:54:10.042Z,12.03
2024-03-15T05:55:33.164Z,12.03
2024-03-15T05:56:55.221Z,12.80
2024-03-15T05:58:17.348Z,11.90
2024-03-15T05:59:39.491Z,12.77
2024-03-15T06:01:01.747Z,12.20
2024-03-15T06:02:23.991Z,12.10
2024-03-15T06:03:46.158Z,12.10
2024-03-15T06:05:08.731Z,11.87
2024-03-15T06:06:30.923Z,11.80
2024-03-15T06:07:54.400Z,12.30
2024-03-15T06:09:16.815Z,13.17
2024-03-15T06:10:38.984Z,12.30
2024-03-15T06:12:01.156Z,12.43
2024-03-15T06:13:23.364Z,11.73
2024-03-15T06:14:45.464Z,11.70
2024-03-15T06:16:11.755Z,12.53
2024-03-15T06:17:33.965Z,12.17
2024-03-15T06:18:56.253Z,11.70
2024-03-15T06:20:19.996Z,12.53
2024-03-15T06:21:43.501Z,12.60
2024-03-15T06:23:05.628Z,12.60
2024-03-15T06:24:27.777Z,12.63
2024-03-15T06:25:50.057Z,13.17
2024-03-15T06:27:14.825Z,13.10
2024-03-15T06:28:38.253Z,12.40
2024-03-15T06:30:04.340Z,11.60
2024-03-15T06:31:26.549Z,11.73
2024-03-15T06:32:48.687Z,11.37
2024-03-15T06:34:10.883Z,11.60
2024-03-15T06:35:34.404Z,10.73
2024-03-15T06:37:00.424Z,11.57
2024-03-15T06:38:31.394Z,11.90
2024-03-15T06:39:56.331Z,12.03
2024-03-15T06:41:22.043Z,12.30
2024-03-15T06:43:10.079Z,12.83
2024-03-15T06:44:47.175Z,13.17
2024-03-15T06:46:25.755Z,11.57
2024-03-15T06:47:53.444Z,12.00
2024-03-15T06:49:17.606Z,12.17
2024-03-15T06:50:49.841Z,10.70
2024-03-15T06:52:34.306Z,11.33
2024-03-15T06:53:57.705Z,11.93
2024-03-15T06:55:21.114Z,12.37
2024-03-15T06:56:43.489Z,13.03
2024-03-15T06:58:09.377Z,11.77
2024-03-15T06:59:40.072Z,10.97
2024-03-15T07:01:03.974Z,12.17
2024-03-15T07:02:26.209Z,12.03
2024-03-15T07:03:49.525Z,13.80
2024-03-15T07:05:13.007Z,13.43
2024-03-15T07:06:35.404Z,12.43
2024-03-15T07:07:57.660Z,14.20
2024-03-15T07:09:20.887Z,12.73
2024-03-15T07:10:43.049Z,11.83
2024-03-15T07:12:05.818Z,12.27
2024-03-15T07:13:27.921Z,12.90
2024-03-15T07:14:54.064Z,12.93
2024-03-15T07:16:17.050Z,12.70
2024-03-15T07:17:39.933Z,13.77
2024-03-15T07:19:02.625Z,12.10
2024-03-15T07:20:24.907Z,13.00
2024-03-15T07:21:47.036Z,13.70
2024-03-15T07:23:09.239Z,11.67
2024-03-15T07:24:32.482Z,11.67
2024-03-15T07:25:55.125Z,13.90
2024-03-15T07:27:17.424Z,13.07
2024-03-15T07:28:40.934Z,11.93
2024-03-15T07:30:05.835Z,12.50
2024-03-15T07:31:28.567Z,12.40
2024-03-15T07:32:52.918Z,13.50
2024-03-15T07:34:15.159Z,13.00
2024-03-15T07:35:37.398Z,11.30
2024-03-15T07:36:59.778Z,12.07
2024-03-15T07:38:22.027Z,12.30
2024-03-15T07:39:45.731Z,13.40
2024-03-15T07:41:11.743Z,11.10
2024-03-15T07:42:34.355Z,12.50
2024-03-15T07:43:57.197Z,12.40
2024-03-15T07:45:19.722Z,11.30
2024-03-15T07:46:43.151Z,12.50
2024-03-15T07:48:05.765Z,11.03
2024-03-15T07:49:27.869Z,10.57
2024-03-15T07:50:49.950Z,11.97
2024-03-15T07:52:12.215Z,12.03
2024-03-15T07:53:34.395Z,11.13
2024-03-15T07:54:56.648Z,10.70
2024-03-15T07:56:20.193Z,12.20
2024-03-15T07:57:44.015Z,11.77
2024-03-15T07:59:07.496Z,10.60
2024-03-15T08:00:31.005Z,10.77
2024-03-15T08:01:54.763Z,11.43
2024-03-15T08:03:20.096Z,12.47
2024-03-15T08:04:46.975Z,11.90
2024-03-15T08:06:11.094Z,10.53
2024-03-15T08:07:33.609Z,11.60
2024-03-15T08:08:55.718Z,10.73
2024-03-15T08:10:19.091Z,11.23
2024-03-15T08:11:43.664Z,11.90
2024-03-15T08:13:05.875Z,11.60
2024-03-15T08:14:32.411Z,10.57
2024-03-15T08:16:10.136Z,10.77
2024-03-15T08:17:32.302Z,10.50
2024-03-15T08:18:55.140Z,10.23
2024-03-15T08:20:20.462Z,10.37
2024-03-15T08:21:42.574Z,10.20
2024-03-15T08:23:07.701Z,10.80
2024-03-15T08:24:30.744Z,11.20
2024-03-15T08:25:52.888Z,12.10
2024-03-15T08:27:15.104Z,11.10
2024-03-15T08:28:37.902Z,10.20
2024-03-15T08:30:01.729Z,11.50
2024-03-15T08:31:24.399Z,11.30
2024-03-15T08:32:46.605Z,11.80
2024-03-15T08:34:09.124Z,12.60
2024-03-15T08:35:31.550Z,11.20
2024-03-15T08:36:54.645Z,11.47
2024-03-15T08:38:16.965Z,11.23
2024-03-15T08:39:40.106Z,10.20
2024-03-15T08:41:03.115Z,10.57
2024-03-15T08:42:25.909Z,11.23
2024-03-15T08:43:50.885Z,11.33
2024-03-15T08:45:14.582Z,11.33
2024-03-15T08:46:38.147Z,11.03
2024-03-15T08:48:01.807Z,11.07
2024-03-15T08:49:27.246Z,10.50
2024-03-15T08:50:49.471Z,10.50
2024-03-15T08:52:17.342Z,10.73
2024-03-15T08:53:39.875Z,11.60
2024-03-15T08:55:02.861Z,10.60
2024-03-15T08:56:25.748Z,10.20
2024-03-15T08:57:48.369Z,10.00
2024-03-15T08:59:10.490Z,10.80
2024-03-15T09:00:33.519Z,10.87
2024-03-15T09:01:58.307Z,11.70
2024-03-15T09:03:20.578Z,10.07
2024-03-15T09:04:42.721Z,9.77
2024-03-15T09:06:07.641Z,10.87
2024-03-15T09:07:32.624Z,10.50
2024-03-15T09:08:58.215Z,10.50
2024-03-15T09:10:20.686Z,10.67
2024-03-15T09:11:46.016Z,9.80
2024-03-15T09:13:08.340Z,10.40
2024-03-15T09:14:30.973Z,9.30
2024-03-15T09:15:56.602Z,9.00
2024-03-15T09:17:19.364Z,9.53
2024-03-15T09:18:42.431Z,9.70
2024-03-15T09:20:15.888Z,11.63
2024-03-15T09:21:41.623Z,10.20
2024-03-15T09:23:04.119Z,10.23
2024-03-15T09:24:26.433Z,10.50
2024-03-15T09:25:48.546Z,10.13
2024-03-15T09:27:10.901Z,10.33
2024-03-15T09:28:39.186Z,10.83
2024-03-15T09:30:17.392Z,10.30
2024-03-15T09:31:59.378Z,9.63
2024-03-15T09:33:29.031Z,10.10
2024-03-15T09:34:52.341Z,10.40
2024-03-15T09:36:18.184Z,10.90
2024-03-15T09:37:48.136Z,10.43
2024-03-15T09:39:14.401Z,10.37
2024-03-15T09:40:36.651Z,11.40
2024-03-15T09:41:59.081Z,10.43
2024-03-15T09:43:21.841Z,10.60
2024-03-15T09:44:48.570Z,10.20
2024-03-15T09:46:18.215Z,10.97
2024-03-15T09:47:42.049Z,10.97
2024-03-15T09:49:04.868Z,10.90
2024-03-15T09:50:30.491Z,9.33
2024-03-15T09:51:54.471Z,9.60
2024-03-15T09:53:17.926Z,10.47
2024-03-15T09:54:40.251Z,9.70
2024-03-15T09:56:04.747Z,10.00
2024-03-15T09:57:27.395Z,9.70
2024-03-15T09:58:53.328Z,10.77
2024-03-15T10:00:25.614Z,9.97
2024-03-15T10:01:48.526Z,10.63
2024-03-15T10:03:11.107Z,10.37
2024-03-15T10:04:34.552Z,9.93
2024-03-15T10:05:59.056Z,10.83
2024-03-15T10:07:23.374Z,10.77
2024-03-15T10:08:45.636Z,9.37
2024-03-15T10:10:15.405Z,11.10
2024-03-15T10:11:37.567Z,8.87
2024-03-15T10:12:59.960Z,10.97
2024-03-15T10:14:22.236Z,10.30
2024-03-15T10:15:48.363Z,10.77
2024-03-15T10:17:11.358Z,10.60
2024-03-15T10:18:35.510Z,10.00
2024-03-15T10:19:59.299Z,10.00
2024-03-15T10:21:22.115Z,10.37
2024-03-15T10:22:44.674Z,10.20
2024-03-15T10:24:11.622Z,11.00
2024-03-15T10:25:35.833Z,10.43
2024-03-15T10:26:58.132Z,10.30
2024-03-15T10:28:23.203Z,10.93
2024-03-15T10:29:45.353Z,11.27
2024-03-15T10:31:07.530Z,10.93
2024-03-15T10:32:32.291Z,10.90
2024-03-15T10:33:54.418Z,10.13
2024-03-15T10:35:21.893Z,11.10
2024-03-15T10:36:44.112Z,10.67
2024-03-15T10:38:06.947Z,10.53
2024-03-15T10:39:29.183Z,11.80
2024-03-15T10:40:51.582Z,11.10
2024-03-15T10:42:14.548Z,10.57
2024-03-15T10:43:37.751Z,10.10
2024-03-15T10:44:59.959Z,10.13
2024-03-15T10:46:22.735Z,10.50
2024-03-15T10:47:44.956Z,10.30
2024-03-15T10:49:07.655Z,11.47
2024-03-15T10:50:30.085Z,9.90
2024-03-15T10:51:53.356Z,10.50
2024-03-15T10:53:17.351Z,10.70
2024-03-15T10:54:42.797Z,10.20
2024-03-15T10:56:05.584Z,10.50
2024-03-15T10:57:27.953Z,11.23
2024-03-15T10:58:50.330Z,10.73
2024-03-15T11:00:19.026Z,10.33
2024-03-15T11:01:42.201Z,9.80
2024-03-15T11:03:27.334Z,10.70
2024-03-15T11:04:50.855Z,9.37
2024-03-15T11:06:13.664Z,9.80
2024-03-15T11:07:35.827Z,10.00
2024-03-15T11:08:57.908Z,9.90
2024-03-15T11:10:23.012Z,9.70
2024-03-15T11:11:56.332Z,10.83
2024-03-15T11:13:22.122Z,10.43
2024-03-15T11:14:44.193Z,11.57
2024-03-15T11:16:19.600Z,10.40
2024-03-15T11:17:43.073Z,9.33
2024-03-15T11:19:06.167Z,10.03
2024-03-15T11:20:42.911Z,9.53
2024-03-15T11:22:05.482Z,9.77
2024-03-15T11:23:28.661Z,9.40
2024-03-15T11:24:52.888Z,10.47
2024-03-15T11:26:21.279Z,10.10
2024-03-15T11:28:00.294Z,9.50
2024-03-15T11:29:22.552Z,9.73
2024-03-15T11:30:46.718Z,9.33
2024-03-15T11:32:12.414Z,10.30
2024-03-15T11:33:34.725Z,8.60
2024-03-15T11:34:57.108Z,9.20
2024-03-15T11:36:19.344Z,10.30
2024-03-15T11:37:41.618Z,10.13
2024-03-15T11:39:04.110Z,10.50
2024-03-15T11:40:27.073Z,8.90
2024-03-15T11:41:49.484Z,9.03
2024-03-15T11:43:14.044Z,9.77
2024-03-15T11:44:36.744Z,9.10
2024-03-15T11:45:59.378Z,9.80
2024-03-15T11:47:21.705Z,9.47
2024-03-15T11:48:43.959Z,9.97
2024-03-15T11:50:17.155Z,9.50
2024-03-15T11:51:40.709Z,9.03
2024-03-15T11:53:04.269Z,8.80
2024-03-15T11:54:27.037Z,8.70
2024-03-15T11:55:51.358Z,8.50
2024-03-15T11:57:13.549Z,8.03
2024-03-15T11:58:41.772Z,8.30
2024-03-15T12:00:10.951Z,7.70
2024-03-15T12:01:33.088Z,9.13
2024-03-15T12:02:57.899Z,9.27
2024-03-15T12:04:21.069Z,8.87
2024-03-15T12:05:45.019Z,7.80
2024-03-15T12:07:07.782Z,8.37
2024-03-15T12:08:30.664Z,8.23
2024-03-15T12:09:59.722Z,8.50
2024-03-15T12:11:22.098Z,8.93
2024-03-15T12:12:47.732Z,8.33
2024-03-15T12:14:13.856Z,8.07
2024-03-15T12:15:37.033Z,8.10
2024-03-15T12:16:59.265Z,8.10
2024-03-15T12:18:24.145Z,8.47
2024-03-15T12:19:47.143Z,8.27
2024-03-15T12:21:12.164Z,8.63
2024-03-15T12:22:34.313Z,9.27
2024-03-15T12:23:56.494Z,8.20
2024-03-15T12:25:18.598Z,8.60
2024-03-15T12:26:41.291Z,8.10
2024-03-15T12:28:06.567Z,8.63
2024-03-15T12:29:30.032Z,7.93
2024-03-15T12:30:54.847Z,8.47
2024-03-15T12:32:17.240Z,9.27
2024-03-15T12:33:39.368Z,7.60
2024-03-15T12:35:01.522Z,9.93
2024-03-15T12:36:23.744Z,8.60
2024-03-15T12:37:46.221Z,7.67
2024-03-15T12:39:10.525Z,8.50
2024-03-15T12:40:32.712Z,8.07
2024-03-15T12:41:56.672Z,8.60
2024-03-15T12:43:20.413Z,8.40
2024-03-15T12:44:42.590Z,8.50
2024-03-15T12:46:10.023Z,8.87
2024-03-15T12:47:37.865Z,9.00
2024-03-15T12:49:00.080Z,10.27
2024-03-15T12:50:28.185Z,8.77
2024-03-15T12:51:50.678Z,9.43
2024-03-15T12:53:20.188Z,9.17
2024-03-15T12:54:43.450Z,9.60
2024-03-15T12:56:05.905Z,10.00
2024-03-15T12:57:29.337Z,9.00
2024-03-15T12:58:51.484Z,8.90
2024-03-15T13:00:16.324Z,9.13
2024-03-15T13:01:38.729Z,10.70
2024-03-15T13:03:00.918Z,9.20
2024-03-15T13:04:23.202Z,8.73
2024-03-15T13:05:45.397Z,9.40
2024-03-15T13:07:07.517Z,10.13
2024-03-15T13:08:29.887Z,9.93
2024-03-15T13:09:52.071Z,9.00
2024-03-15T13:11:14.795Z,9.27
2024-03-15T13:12:37.800Z,9.70
2024-03-15T13:13:59.942Z,9.20
2024-03-15T13:15:22.605Z,9.40
2024-03-15T13:16:44.829Z,10.17
2024-03-15T13:18:08.284Z,8.70
2024-03-15T13:19:31.185Z,8.50
2024-03-15T13:20:55.610Z,9.40
2024-03-15T13:22:19.559Z,8.87
2024-03-15T13:23:44.974Z,9.13
2024-03-15T13:25:26.153Z,8.53
2024-03-15T13:26:55.630Z,8.00
2024-03-15T13:28:17.944Z,9.33
2024-03-15T13:29:41.569Z,9.20
2024-03-15T13:31:05.228Z,10.13
2024-03-15T13:32:27.499Z,8.27
2024-03-15T13:33:49.676Z,8.60
2024-03-15T13:35:20.503Z,9.80
2024-03-15T13:36:42.693Z,9.50
2024-03-15T13:38:04.845Z,8.90
2024-03-15T13:39:29.742Z,9.33
2024-03-15T13:40:51.911Z,8.80
2024-03-15T13:42:14.420Z,7.83
2024-03-15T13:43:36.530Z,9.97
2024-03-15T13:44:58.631Z,8.03
2024-03-15T13:46:23.648Z,8.83
2024-03-15T13:47:49.319Z,9.00
2024-03-15T13:49:12.253Z,8.67
2024-03-15T13:50:34.497Z,8.20
2024-03-15T13:51:56.640Z,8.30
2024-03-15T13:53:18.908Z,8.77
2024-03-15T13:54:41.789Z,8.70
2024-03-15T13:56:06.285Z,8.50
2024-03-15T13:57:28.330Z,8.13
2024-03-15T13:58:50.540Z,8.17
2024-03-15T14:00:34.176Z,8.93
2024-03-15T14:01:56.957Z,8.90
2024-03-15T14:03:20.120Z,8.40
2024-03-15T14:04:44.521Z,8.30
2024-03-15T14:06:07.626Z,9.10
2024-03-15T14:07:30.056Z,8.37
2024-03-15T14:08:54.772Z,7.33
2024-03-15T14:10:19.964Z,7.77
2024-03-15T14:11:42.514Z,9.10
2024-03-15T14:13:06.157Z,7.83
2024-03-15T14:14:28.532Z,7.83
2024-03-15T14:15:50.819Z,8.77
2024-03-15T14:17:12.973Z,8.20
2024-03-15T14:18:35.331Z,6.90
2024-03-15T14:19:57.986Z,7.30
2024-03-15T14:21:20.146Z,7.80
2024-03-15T14:22:44.919Z,7.70
2024-03-15T14:24:07.550Z,8.53
2024-03-15T14:25:35.827Z,8.60
2024-03-15T14:26:58.084Z,7.90
2024-03-15T14:28:20.976Z,7.70
2024-03-15T14:29:47.467Z,8.07
2024-03-15T14:31:10.120Z,7.60
2024-03-15T14:32:32.419Z,8.00
2024-03-15T14:33:54.650Z,8.60
2024-03-15T14:35:17.588Z,9.17
2024-03-15T14:36:40.668Z,7.97
2024-03-15T14:38:05.667Z,5.13
2024-03-15T14:39:28.032Z,4.00
2024-03-15T14:40:50.137Z,2.97
2024-03-15T14:42:12.229Z,2.22
2024-03-15T14:43:34.387Z,1.37
2024-03-15T14:44:56.543Z,1.40
2024-03-15T14:46:19.174Z,2.13
2024-03-15T14:47:42.478Z,1.80
2024-03-15T14:49:06.686Z,1.67
2024-03-15T14:50:32.809Z,1.63
2024-03-15T14:51:55.049Z,1.50
2024-03-15T14:53:21.346Z,1.95
2024-03-15T14:54:45.521Z,1.47
2024-03-15T14:56:08.163Z,2.33
2024-03-15T14:57:31.028Z,2.37
2024-03-15T14:58:56.558Z,3.00
2024-03-15T15:00:19.506Z,3.30
2024-03-15T15:01:41.896Z,4.10
2024-03-15T15:03:05.018Z,3.90
2024-03-15T15:04:27.576Z,4.43
2024-03-15T15:05:49.988Z,4.27
2024-03-15T15:07:15.661Z,4.00
2024-03-15T15:08:39.681Z,3.40
2024-03-15T15:10:08.452Z,3.67
2024-03-15T15:11:31.227Z,3.63
2024-03-15T15:12:54.418Z,4.17
2024-03-15T15:16:11.100Z,4.10
2024-03-15T15:17:33.512Z,4.27
2024-03-15T15:18:55.712Z,3.40
2024-03-15T15:20:19.612Z,3.20
2024-03-15T15:21:41.933Z,3.20
2024-03-15T15:23:07.023Z,3.50
2024-03-15T15:24:29.914Z,3.83
2024-03-15T15:25:52.197Z,4.13
2024-03-15T15:27:14.352Z,3.73
2024-03-15T15:28:36.483Z,3.63
2024-03-15T15:29:58.745Z,3.60
2024-03-15T15:31:20.836Z,3.30
2024-03-15T15:32:43.692Z,3.40
2024-03-15T15:34:05.930Z,3.30
2024-03-15T15:35:28.746Z,3.37
2024-03-15T15:36:51.824Z,3.10
2024-03-15T15:38:13.995Z,4.30
2024-03-15T15:39:36.187Z,3.40
2024-03-15T15:40:58.333Z,3.20
2024-03-15T15:42:20.534Z,2.67
2024-03-15T15:43:42.697Z,3.13
2024-03-15T15:45:06.330Z,3.10
2024-03-15T15:46:28.591Z,3.50
2024-03-15T15:47:50.887Z,3.40
2024-03-15T15:49:13.294Z,3.50
2024-03-15T15:50:38.245Z,3.70
2024-03-15T15:52:05.157Z,3.40
2024-03-15T15:53:27.488Z,3.60
2024-03-15T15:54:50.383Z,3.57
2024-03-15T15:56:12.548Z,2.93
2024-03-15T15:57:34.811Z,4.37
2024-03-15T15:58:57.164Z,3.80
2024-03-15T16:00:21.052Z,3.67
2024-03-15T16:01:43.996Z,3.57
2024-03-15T16:03:08.345Z,4.07
2024-03-15T16:04:31.698Z,4.30
2024-03-15T16:05:56.245Z,4.20
2024-03-15T16:07:18.388Z,3.87
2024-03-15T16:08:42.323Z,4.37
2024-03-15T16:10:04.829Z,4.40
2024-03-15T16:11:27.176Z,4.10
2024-03-15T16:12:49.416Z,4.37
2024-03-15T16:14:11.520Z,4.40
2024-03-15T16:15:33.598Z,4.73
2024-03-15T16:16:55.750Z,4.93
2024-03-15T16:18:18.079Z,4.90
2024-03-15T16:19:40.392Z,4.50
2024-03-15T16:21:04.404Z,4.90
2024-03-15T16:22:28.246Z,4.87
2024-03-15T16:23:50.376Z,4.43
2024-03-15T16:25:12.558Z,5.70
2024-03-15T16:26:35.540Z,4.70
2024-03-15T16:27:57.872Z,5.03
2024-03-15T16:29:20.020Z,4.93
2024-03-15T16:30:42.156Z,4.63
2024-03-15T16:32:06.709Z,4.73
2024-03-15T16:33:28.994Z,5.00
2024-03-15T16:34:51.728Z,3.87
2024-03-15T16:36:14.646Z,4.07
2024-03-15T16:37:37.416Z,4.40
2024-03-15T16:39:03.294Z,4.87
2024-03-15T16:40:25.916Z,3.97
2024-03-15T16:41:48.130Z,4.90
2024-03-15T16:43:10.367Z,5.07
2024-03-15T16:44:32.517Z,4.30
2024-03-15T16:45:54.802Z,4.50
2024-03-15T16:47:17.005Z,4.80
2024-03-15T16:48:39.187Z,4.30
2024-03-15T16:50:02.350Z,4.83
2024-03-15T16:51:25.009Z,5.23
2024-03-15T16:52:47.140Z,5.40
2024-03-15T16:54:09.309Z,5.20
2024-03-15T16:55:34.410Z,5.20
2024-03-15T16:56:56.598Z,5.40
2024-03-15T16:58:21.300Z,6.10
2024-03-15T16:59:43.433Z,6.60
2024-03-15T17:01:07.850Z,7.67
2024-03-15T17:02:29.989Z,6.70
2024-03-15T17:03:52.116Z,7.60
2024-03-15T17:05:15.252Z,7.40
2024-03-15T17:06:41.321Z,8.00
2024-03-15T17:08:03.618Z,7.00
2024-03-15T17:09:27.882Z,8.00
2024-03-15T17:10:50.105Z,8.00
2024-03-15T17:12:12.312Z,7.97
2024-03-15T17:13:34.459Z,7.70
2024-03-15T17:14:56.556Z,7.93
2024-03-15T17:16:18.704Z,7.80
2024-03-15T17:17:41.275Z,8.00
2024-03-15T17:19:06.052Z,8.53
2024-03-15T17:20:28.354Z,8.63
2024-03-15T17:21:50.741Z,8.17
2024-03-15T17:23:12.949Z,7.43
2024-03-15T17:24:35.825Z,7.57
2024-03-15T17:26:01.295Z,8.23
2024-03-15T17:27:23.603Z,7.77
2024-03-15T17:28:45.800Z,8.20
2024-03-15T17:30:08.209Z,9.50
2024-03-15T17:31:30.389Z,8.60
2024-03-15T17:32:52.717Z,8.80
2024-03-15T17:34:14.893Z,9.20
2024-03-15T17:35:37.060Z,8.93
2024-03-15T17:36:59.206Z,10.40
2024-03-15T17:38:21.487Z,10.30
2024-03-15T17:39:43.655Z,9.80
2024-03-15T17:41:06.978Z,9.13
2024-03-15T17:42:30.542Z,10.37
2024-03-15T17:43:52.704Z,10.50
2024-03-15T17:45:16.217Z,9.80
2024-03-15T17:46:38.471Z,10.23
2024-03-15T17:48:00.720Z,9.53
2024-03-15T17:49:23.002Z,10.33
2024-03-15T17:50:45.339Z,9.90
2024-03-15T17:52:07.893Z,9.97
2024-03-15T17:53:30.023Z,10.23
2024-03-15T17:54:52.353Z,10.70
2024-03-15T17:56:14.824Z,10.23
2024-03-15T17:57:37.797Z,9.90
2024-03-15T17:59:00.201Z,9.50
2024-03-15T18:00:22.422Z,10.30
2024-03-15T18:01:44.923Z,10.90
2024-03-15T18:03:09.227Z,11.40
2024-03-15T18:04:31.415Z,11.33
2024-03-15T18:05:53.505Z,11.30
2024-03-15T18:07:15.664Z,10.70
2024-03-15T18:08:37.899Z,10.63
2024-03-15T18:10:00.065Z,10.90
2024-03-15T18:11:22.303Z,10.07
2024-03-15T18:12:44.571Z,10.67